Mijn Webcam  Mijn Webcam


webcam richting noord-oost  webcam facing north-east


Regen radar Meer informatie rain snow radar


Bezoek onze andere website:

Template documentation
and downloads

PWS Template - cumulus version

HWS Template - cumulus versie

And another site



METAR rapporten vliegvelden

   
EHGG - Groningen/Eelde, Netherlands
Afstand tot: Z 20 km
Gewijzigd: 23-04-2019 10:55
Helder  
Helder  
   Wind: Oosten 29.6 km/h
Wind: Oosten 29.6 km/h
Temperatuur: 17°C
Dauwpunt: 6°C
Vochtigheid: 49%
Barometer: 1004 hPa
Bewolking: Helder
Zicht: meer dan 10 km
Bewolking: Helder
EHGG 230855Z AUTO 09016KT 050V140 9999 NCD 17/06 Q1004 TEMPO 10016G26KT
EHMA - Awg-1 Sea, Netherlands
Afstand tot: WNW 45 km
Gewijzigd: 23-04-2019 10:55
Helder  
Helder  
   Wind: OZO 46.3 km/h
Wind: OZO 46.3 km/h
Temperatuur: 15°C
Dauwpunt: 6°C
Vochtigheid: 55%
Barometer: 1004 hPa
Bewolking: Helder
Zicht: meer dan 10 km
Bewolking: Helder
EHMA 230855Z AUTO 12025KT 9999 NCD 15/06 Q1004 W///H///
 

Script ontwikkeld door  Saratoga-weather.org Aangepast voor de template door  Weerstation Leuven

U vindt ons ook hier:

Het Weer Aktueel

UK Metoffice

European Weather Network

WeatherCloud

Weather Underground

Benelux Weer Netwerk

AWEKAS

WeatherlinkIP

HAMweather, WeatherForYou, PWS Weather

Apparatuur in gebruik:

Weerstation
Davis VP2

Weerprogramma
Cumulus

Davis VP2

Cumulus